Time;durP1;ratioP1;P1;durP2;ratioP2;P2;SDS_P1;SDS_P2;PMS_P1;PMS_P2;Temp;Humidity;BMP_temperature;BMP_pressure;BME280_temperature;BME280_humidity;BME280_pressure;Samples;Min_cycle;Max_cycle;Signal;HPM_P1;HPM_P2
2022/05/15 00:00:37;;;;;;;21.50;9.45;;;;;;;11.70;73.80;102002.78;4861995;29;20037;-84
2022/05/15 00:00:41;;;;;;;23.88;10.52;;;;;;;11.80;73.91;102025.63;4861972;29;20372;-85
2022/05/15 00:03:18;;;;;;;29.08;9.75;;;;;;;11.87;73.90;102027.03;4861714;29;20144;-84
2022/05/15 00:05:44;;;;;;;26.73;9.43;;;;;;;11.97;73.50;102039.44;4862131;29;20037;-84
2022/05/15 00:08:12;;;;;;;23.65;9.55;;;;;;;11.89;74.03;102041.56;4862006;29;20037;-83
2022/05/15 00:10:40;;;;;;;23.92;9.30;;;;;;;11.91;73.69;102042.34;4861557;29;20029;-84
2022/05/15 00:13:09;;;;;;;34.67;10.45;;;;;;;11.95;73.94;102037.84;4861697;29;20474;-84
2022/05/15 00:15:35;;;;;;;27.50;9.48;;;;;;;11.85;73.71;102029.69;4861791;29;20044;-83
2022/05/15 00:18:01;;;;;;;22.83;9.27;;;;;;;11.90;73.83;102038.09;4861387;29;20021;-82
2022/05/15 00:20:29;;;;;;;24.05;9.80;;;;;;;11.80;74.38;102039.44;4861712;29;20122;-83
2022/05/15 00:22:55;;;;;;;26.13;10.10;;;;;;;11.68;74.48;102022.72;4861183;29;20549;-83
2022/05/15 00:25:21;;;;;;;33.03;10.63;;;;;;;11.73;74.41;102023.34;4861215;29;20108;-83
2022/05/15 00:27:47;;;;;;;28.33;10.13;;;;;;;11.69;74.20;102013.19;4861696;29;20423;-84
2022/05/15 00:30:14;;;;;;;26.75;10.15;;;;;;;11.55;74.34;102000.94;4861629;29;20104;-83
2022/05/15 00:32:40;;;;;;;23.23;9.90;;;;;;;11.61;74.19;102017.94;4861448;29;20037;-84
2022/05/15 00:35:06;;;;;;;29.38;9.50;;;;;;;11.72;74.38;102033.78;4861516;29;20049;-82
2022/05/15 00:37:31;;;;;;;25.13;9.63;;;;;;;11.57;74.29;102008.63;4861313;29;20033;-84
2022/05/15 00:39:59;;;;;;;27.50;9.77;;;;;;;11.63;74.61;102024.69;4861093;29;20061;-83
2022/05/15 00:42:25;;;;;;;24.77;9.65;;;;;;;11.61;74.52;102025.69;4861307;29;20416;-84
2022/05/15 00:44:50;;;;;;;26.73;9.75;;;;;;;11.32;74.73;101988.28;4861220;29;20032;-84
2022/05/15 00:47:15;;;;;;;24.45;9.15;;;;;;;11.49;75.07;102029.69;4861412;29;20081;-84
2022/05/15 00:49:41;;;;;;;29.85;9.60;;;;;;;11.47;74.96;102023.75;4861294;29;20104;-84
2022/05/15 00:52:11;;;;;;;27.83;10.55;;;;;;;11.44;75.11;102016.97;4844356;29;20037;-84
2022/05/15 00:54:59;;;;;;;32.03;11.23;;;;;;;11.43;74.88;102022.22;4860358;29;20037;-84
2022/05/15 00:57:38;;;;;;;29.60;10.05;;;;;;;11.40;75.20;102019.75;4861040;29;20434;-82
2022/05/15 01:00:08;;;;;;;28.42;11.10;;;;;;;11.35;75.78;102017.41;4861123;29;20029;-84
2022/05/15 01:02:39;;;;;;;27.73;9.18;;;;;;;11.32;75.77;102012.41;4860749;29;20105;-85
2022/05/15 01:05:06;;;;;;;33.70;9.80;;;;;;;11.10;75.83;101981.50;4860906;29;20030;-82
2022/05/15 01:07:34;;;;;;;27.05;10.00;;;;;;;11.30;75.91;102011.59;4860861;29;20462;-82
2022/05/15 01:10:00;;;;;;;22.75;9.43;;;;;;;11.31;75.83;102015.06;4860357;29;20489;-83
2022/05/15 01:12:27;;;;;;;19.75;8.70;;;;;;;11.22;75.79;101999.97;4860789;29;20497;-82
2022/05/15 01:14:53;;;;;;;26.02;8.65;;;;;;;11.24;75.61;102000.72;4860952;29;20037;-84
2022/05/15 01:17:18;;;;;;;29.67;8.98;;;;;;;11.30;75.87;102021.09;4860973;29;20398;-84
2022/05/15 01:19:59;;;;;;;22.88;8.25;;;;;;;11.30;75.83;102026.28;4843770;29;20132;-84
2022/05/15 01:22:27;;;;;;;29.02;9.32;;;;;;;11.28;75.81;102017.75;4860764;29;20038;-83
2022/05/15 01:24:59;;;;;;;23.52;8.88;;;;;;;11.20;76.01;102016.38;4861021;29;20029;-84
2022/05/15 01:27:25;;;;;;;26.30;8.65;;;;;;;10.94;75.84;101964.22;4860615;29;20386;-84
2022/05/15 01:29:50;;;;;;;22.60;8.57;;;;;;;11.22;76.19;102011.16;4860812;29;20033;-84
2022/05/15 01:32:16;;;;;;;29.15;9.93;;;;;;;11.04;76.51;101993.91;4860597;29;20037;-84
2022/05/15 01:34:42;;;;;;;27.80;7.80;;;;;;;11.17;76.57;102024.28;4860464;29;20061;-84
2022/05/15 01:37:09;;;;;;;25.10;8.30;;;;;;;11.04;76.13;101992.16;4860662;29;20108;-84
2022/05/15 01:39:34;;;;;;;27.70;8.32;;;;;;;11.23;75.96;102022.34;4860568;29;20029;-85
2022/05/15 01:42:03;;;;;;;29.55;9.23;;;;;;;11.01;75.92;101986.28;4860437;29;20029;-84
2022/05/15 01:44:29;;;;;;;25.85;8.55;;;;;;;11.24;76.05;102014.50;4860277;29;20036;-84
2022/05/15 01:46:54;;;;;;;22.85;8.25;;;;;;;11.28;75.74;102015.19;4860488;29;20030;-84
2022/05/15 01:49:20;;;;;;;24.73;8.73;;;;;;;11.23;76.02;101996.47;4860402;29;20025;-84
2022/05/15 01:51:46;;;;;;;28.67;8.65;;;;;;;11.37;75.44;102014.75;4859936;29;20049;-84
2022/05/15 01:54:11;;;;;;;27.00;7.63;;;;;;;11.27;75.32;102000.56;4860333;29;20061;-84
2022/05/15 01:56:37;;;;;;;25.95;8.50;;;;;;;11.18;75.42;101978.56;4860390;29;20038;-84
2022/05/15 01:59:03;;;;;;;29.52;7.82;;;;;;;11.14;75.41;101980.47;4860005;29;20478;-84
2022/05/15 02:01:31;;;;;;;26.10;7.47;;;;;;;11.36;75.45;102011.31;4860314;29;20097;-84
2022/05/15 02:03:56;;;;;;;19.10;6.72;;;;;;;11.17;75.15;101982.06;4860139;29;20048;-84
2022/05/15 02:06:22;;;;;;;27.55;8.02;;;;;;;11.12;75.62;101974.53;4863450;29;20097;-84
2022/05/15 02:08:50;;;;;;;23.77;7.25;;;;;;;11.31;75.26;102010.72;4864291;29;20112;-82
2022/05/15 02:11:21;;;;;;;27.50;7.45;;;;;;;11.27;75.22;102006.59;4864080;29;20439;-84
2022/05/15 02:13:46;;;;;;;21.52;6.75;;;;;;;10.88;75.55;101927.41;4864100;29;20096;-84
2022/05/15 02:16:14;;;;;;;30.90;7.28;;;;;;;11.08;74.86;101956.66;4863829;29;20042;-84
2022/05/15 02:28:58;;;;;;;28.33;8.00;;;;;;;10.85;74.99;101935.31;4863821;29;20045;-85
2022/05/15 02:31:48;;;;;;;25.03;7.97;;;;;;;11.27;75.13;102016.94;4863574;29;20454;-86
2022/05/15 02:38:08;;;;;;;26.17;7.45;;;;;;;11.19;74.93;102009.53;4863355;29;20041;-83
2022/05/15 02:40:34;;;;;;;27.23;7.55;;;;;;;11.13;75.71;102002.06;4863516;29;20026;-84
2022/05/15 02:42:59;;;;;;;26.83;7.35;;;;;;;11.13;75.76;102004.66;4846655;29;20034;-83
2022/05/15 02:45:25;;;;;;;25.85;7.65;;;;;;;10.72;75.94;101938.53;4863760;29;20116;-83
2022/05/15 02:47:51;;;;;;;28.63;8.90;;;;;;;11.15;75.69;102000.25;4863428;29;20037;-84
2022/05/15 02:53:02;;;;;;;29.77;8.20;;;;;;;10.96;76.22;101985.66;4863547;29;20053;-84
2022/05/15 02:55:27;;;;;;;30.52;8.35;;;;;;;11.00;76.35;102000.09;4863320;29;20025;-84
2022/05/15 02:57:54;;;;;;;24.63;7.50;;;;;;;10.88;77.04;102004.09;4863124;29;20029;-84
2022/05/15 03:00:21;;;;;;;26.50;8.07;;;;;;;10.62;76.95;101961.38;4863064;29;20064;-83
2022/05/15 03:02:47;;;;;;;23.85;7.85;;;;;;;10.86;77.14;102003.34;4862739;29;20062;-83
2022/05/15 03:05:14;;;;;;;26.10;8.25;;;;;;;10.81;77.37;101995.78;4863021;29;20036;-85
2022/05/15 03:07:40;;;;;;;23.95;7.78;;;;;;;10.77;77.52;101998.56;4863106;29;20470;-85
2022/05/15 03:10:06;;;;;;;27.77;7.10;;;;;;;10.77;77.63;101983.06;4863098;29;20112;-84
2022/05/15 03:12:32;;;;;;;30.52;9.10;;;;;;;10.27;77.72;101909.53;4862686;29;20038;-83
2022/05/15 03:14:58;;;;;;;31.80;8.15;;;;;;;10.58;77.78;101957.22;4862800;29;20590;-84
2022/05/15 03:17:23;;;;;;;28.55;8.85;;;;;;;10.73;77.66;101989.31;4862130;29;20363;-86
2022/05/15 03:19:49;;;;;;;31.15;8.35;;;;;;;10.50;77.92;101952.41;4863011;29;20385;-84
2022/05/15 03:22:15;;;;;;;26.40;8.40;;;;;;;10.67;78.01;101989.56;4862793;29;20047;-84
2022/05/15 03:24:40;;;;;;;22.20;8.18;;;;;;;10.66;78.21;101985.31;4862315;29;20534;-85
2022/05/15 03:27:05;;;;;;;27.13;7.85;;;;;;;10.57;78.36;101987.38;4862596;29;20033;-85
2022/05/15 03:29:31;;;;;;;30.58;8.82;;;;;;;10.55;78.40;101993.53;4862552;29;20029;-85
2022/05/15 03:31:57;;;;;;;25.15;8.05;;;;;;;10.52;78.94;101985.91;4862510;29;20419;-83
2022/05/15 03:34:25;;;;;;;25.05;8.43;;;;;;;10.50;78.87;101980.81;4862541;29;20072;-84
2022/05/15 03:36:52;;;;;;;28.77;8.40;;;;;;;10.50;78.94;101983.38;4862820;29;20116;-84
2022/05/15 03:39:24;;;;;;;27.98;8.07;;;;;;;10.30;79.12;101955.03;4845433;29;20037;-85
2022/05/15 03:41:52;;;;;;;25.50;8.75;;;;;;;10.46;79.03;101978.44;4862363;29;20113;-84
2022/05/15 03:44:22;;;;;;;25.45;8.48;;;;;;;10.03;79.15;101913.19;4862331;29;20112;-84
2022/05/15 03:46:47;;;;;;;27.10;7.97;;;;;;;10.44;79.40;101975.09;4862182;29;20057;-84
2022/05/15 03:49:13;;;;;;;31.02;8.13;;;;;;;10.15;79.66;101935.88;4862311;29;20101;-85
2022/05/15 03:51:39;;;;;;;32.42;9.48;;;;;;;10.43;79.41;101971.69;4862399;29;20030;-85
2022/05/15 03:54:05;;;;;;;24.23;7.82;;;;;;;10.45;79.51;101979.34;4862159;29;20036;-85
2022/05/15 03:59:15;;;;;;;30.73;9.48;;;;;;;10.45;79.35;101981.94;4862187;29;20406;-85
2022/05/15 04:01:40;;;;;;;29.35;8.82;;;;;;;10.35;79.51;101966.00;4861765;29;20102;-84
2022/05/15 04:04:07;;;;;;;27.90;8.45;;;;;;;10.42;79.63;101972.59;4862133;29;20033;-84
2022/05/15 04:06:33;;;;;;;27.13;8.70;;;;;;;10.41;79.73;101980.38;4845380;29;20022;-84
2022/05/15 04:08:58;;;;;;;23.85;8.73;;;;;;;10.37;79.77;101977.09;4861989;29;20398;-84
2022/05/15 04:11:29;;;;;;;25.90;8.48;;;;;;;10.41;80.06;101985.53;4861798;29;20033;-82
2022/05/15 04:13:54;;;;;;;28.77;9.13;;;;;;;10.39;79.60;101975.28;4845067;29;20036;-81
2022/05/15 04:16:22;;;;;;;24.55;8.80;;;;;;;10.37;79.57;101958.19;4861794;29;20747;-82
2022/05/15 04:18:48;;;;;;;24.58;8.32;;;;;;;10.56;79.29;101982.28;4861826;29;20047;-82
2022/05/15 04:21:16;;;;;;;23.27;8.48;;;;;;;10.54;79.31;101990.13;4861885;29;20108;-82
2022/05/15 04:23:41;;;;;;;23.92;8.80;;;;;;;10.32;79.25;101943.75;4861688;29;20029;-82
2022/05/15 04:26:07;;;;;;;24.85;9.77;;;;;;;10.62;78.79;101975.13;4861600;29;20101;-82
2022/05/15 04:28:32;;;;;;;32.78;8.93;;;;;;;10.72;78.74;101985.88;4860560;29;20092;-81
2022/05/15 04:30:58;;;;;;;21.45;8.32;;;;;;;10.75;78.87;101995.22;4861386;29;20490;-82
2022/05/15 04:33:23;;;;;;;28.65;9.80;;;;;;;10.68;78.73;101965.41;4861623;29;20445;-82
2022/05/15 04:35:48;;;;;;;28.38;9.02;;;;;;;10.87;78.91;101989.50;4861770;29;20033;-82
2022/05/15 04:38:17;;;;;;;27.98;8.20;;;;;;;10.79;78.95;101979.50;4844398;29;20045;-84
2022/05/15 04:40:42;;;;;;;23.15;8.80;;;;;;;10.72;78.43;101939.38;4861448;29;20025;-85
2022/05/15 04:43:10;;;;;;;29.48;9.18;;;;;;;10.73;78.10;101930.72;4861156;29;20030;-84
2022/05/15 04:45:36;;;;;;;26.48;9.05;;;;;;;10.93;77.70;101947.03;4861253;29;20029;-84
2022/05/15 04:48:02;;;;;;;29.10;9.52;;;;;;;11.00;77.88;101954.41;4861373;29;20029;-84
2022/05/15 04:50:27;;;;;;;25.50;8.88;;;;;;;10.77;77.77;101901.22;4861280;29;20393;-83
2022/05/15 04:52:52;;;;;;;27.77;8.73;;;;;;;11.36;77.38;101984.63;4861362;29;20465;-83
2022/05/15 04:55:17;;;;;;;31.67;9.27;;;;;;;11.16;77.34;101944.19;4861026;29;20036;-84
2022/05/15 04:57:43;;;;;;;29.20;9.63;;;;;;;11.57;77.38;101982.75;4861173;29;20037;-84
2022/05/15 05:00:17;;;;;;;27.27;9.68;;;;;;;11.89;76.81;101983.78;4860904;29;20030;-84
2022/05/15 05:02:43;;;;;;;25.67;9.65;;;;;;;12.99;72.89;101975.44;4860649;29;20133;-85
2022/05/15 05:05:09;;;;;;;23.15;9.05;;;;;;;14.39;69.01;101984.66;4860930;29;20085;-84
2022/05/15 05:07:35;;;;;;;24.38;8.35;;;;;;;15.26;64.93;101945.44;4861006;29;20029;-84
2022/05/15 05:10:00;;;;;;;28.60;8.95;;;;;;;16.65;60.94;101981.16;4860974;29;20078;-82
2022/05/15 05:12:25;;;;;;;23.40;8.13;;;;;;;17.61;57.56;101981.22;4860854;29;20037;-82
2022/05/15 05:14:53;;;;;;;23.95;8.80;;;;;;;18.12;54.18;101941.66;4843911;29;20132;-82
2022/05/15 05:17:18;;;;;;;27.83;9.10;;;;;;;18.72;52.81;101979.72;4860725;29;20033;-80
2022/05/15 05:19:44;;;;;;;25.83;8.73;;;;;;;19.42;52.12;101985.31;4860681;29;20056;-82
2022/05/15 05:22:09;;;;;;;28.17;8.38;;;;;;;20.27;48.93;101989.63;4860874;29;20030;-82
2022/05/15 05:24:35;;;;;;;24.35;8.30;;;;;;;20.75;46.84;101978.50;4860668;29;20026;-81
2022/05/15 05:27:01;;;;;;;25.55;8.43;;;;;;;20.86;46.47;101978.38;4860830;29;20033;-80
2022/05/15 05:29:26;;;;;;;19.52;7.28;;;;;;;21.05;45.95;101993.31;4860540;29;20042;-80
2022/05/15 05:31:52;;;;;;;22.17;8.40;;;;;;;21.31;45.10;101970.00;4860528;29;20030;-80
2022/05/15 05:34:17;;;;;;;20.05;8.30;;;;;;;21.76;43.88;101972.84;4860650;29;20037;-80
2022/05/15 05:36:43;;;;;;;25.15;7.75;;;;;;;22.00;43.55;101967.09;4860743;29;20095;-82
2022/05/15 05:39:09;;;;;;;21.15;8.15;;;;;;;22.44;43.19;101976.13;4860614;29;20431;-80
2022/05/15 05:41:34;;;;;;;22.90;8.55;;;;;;;23.06;41.05;101958.69;4860322;29;20052;-82
2022/05/15 05:44:02;;;;;;;24.27;8.93;;;;;;;23.40;40.73;101973.78;4843697;29;20060;-80
2022/05/15 05:46:28;;;;;;;21.92;8.95;;;;;;;23.67;39.39;101965.78;4860575;29;20036;-82
2022/05/15 05:48:57;;;;;;;25.05;9.55;;;;;;;23.78;39.22;101946.25;4859707;29;20069;-81
2022/05/15 05:51:22;;;;;;;25.08;9.68;;;;;;;24.32;37.76;101978.56;4860581;29;20030;-81
2022/05/15 05:53:48;;;;;;;24.45;8.98;;;;;;;24.35;37.57;101985.34;4860494;29;20486;-82
2022/05/15 05:56:14;;;;;;;20.17;9.32;;;;;;;24.82;36.52;101981.19;4860455;29;20518;-82
2022/05/15 05:58:40;;;;;;;20.08;9.55;;;;;;;25.24;37.29;101982.94;4860261;29;20033;-80
2022/05/15 06:01:05;;;;;;;18.98;9.10;;;;;;;25.70;34.61;101986.75;4860007;29;20054;-82
2022/05/15 06:06:14;;;;;;;22.83;9.55;;;;;;;25.66;35.71;101950.16;4860568;29;20056;-82
2022/05/15 06:08:42;;;;;;;19.25;8.55;;;;;;;25.88;35.07;101948.69;4860219;29;20463;-82
2022/05/15 06:11:14;;;;;;;23.40;9.68;;;;;;;25.87;35.15;101909.97;4848832;24;20573;-82
2022/05/15 06:13:42;;;;;;;20.83;9.10;;;;;;;25.88;34.02;101858.69;4824127;29;20035;-81
2022/05/15 06:16:31;;;;;;;20.13;8.10;;;;;;;27.21;34.60;101971.50;4822998;29;20479;-83
2022/05/15 06:19:06;;;;;;;19.58;9.05;;;;;;;26.78;34.45;101973.78;4807146;29;20070;-85
2022/05/15 06:21:39;;;;;;;18.67;8.70;;;;;;;26.34;34.10;101917.84;4823306;29;20035;-84
2022/05/15 06:24:13;;;;;;;26.23;9.77;;;;;;;26.18;34.10;101812.06;4823309;29;20038;-81
2022/05/15 06:26:42;;;;;;;21.05;9.40;;;;;;;26.48;32.98;101820.97;4823322;29;20035;-82
2022/05/15 06:29:32;;;;;;;21.02;9.48;;;;;;;27.82;33.50;101972.28;4822021;29;20498;-82
2022/05/15 06:31:59;;;;;;;21.80;8.90;;;;;;;26.56;31.23;101810.34;4823356;29;20062;-83
2022/05/15 06:34:30;;;;;;;21.27;9.40;;;;;;;26.25;32.33;101803.25;4822236;29;20026;-82
2022/05/15 06:37:04;;;;;;;22.75;10.25;;;;;;;27.49;33.04;101968.28;4823234;29;20475;-84
2022/05/15 06:39:33;;;;;;;20.67;10.65;;;;;;;27.75;31.12;101933.41;4823362;29;20034;-81
2022/05/15 06:42:00;;;;;;;21.20;10.27;;;;;;;27.40;31.18;101813.69;4806983;29;20092;-82
2022/05/15 06:44:40;;;;;;;20.65;9.90;;;;;;;27.24;32.12;101801.44;4821941;29;20031;-82
2022/05/15 06:47:06;;;;;;;22.63;10.13;;;;;;;27.72;31.54;101903.53;4822937;29;20042;-82
2022/05/15 06:49:34;;;;;;;23.90;10.45;;;;;;;28.54;31.41;101961.00;4823027;29;20030;-83
2022/05/15 06:52:06;;;;;;;20.08;10.38;;;;;;;27.96;31.34;101861.78;4823910;29;20031;-81
2022/05/15 06:54:32;;;;;;;19.45;10.57;;;;;;;28.19;30.04;101910.28;4826445;29;20069;-82
2022/05/15 06:57:34;;;;;;;22.98;10.68;;;;;;;27.93;32.26;101803.78;4826568;29;20062;-82
2022/05/15 07:00:27;;;;;;;22.23;11.38;;;;;;;29.36;31.05;101969.38;4826003;29;20034;-82
2022/05/15 07:02:59;;;;;;;23.17;11.18;;;;;;;28.91;29.72;101925.41;4808763;29;20050;-82
2022/05/15 07:05:50;;;;;;;22.95;11.25;;;;;;;29.62;30.08;101967.94;4825789;29;20049;-82
2022/05/15 07:08:33;;;;;;;20.10;10.07;;;;;;;29.64;30.45;101942.78;4826170;29;20472;-82
2022/05/15 07:11:22;;;;;;;;;;;;;;;;;;;;;
2022/05/15 07:13:57;;;;;;;20.33;10.02;;;;;;;27.86;30.41;101824.91;4808039;29;20039;-81
2022/05/15 07:19:14;;;;;;;18.83;11.23;;;;;;;27.94;31.20;101923.06;4807524;29;20050;-83
2022/05/15 07:21:39;;;;;;;19.63;10.73;;;;;;;27.27;31.71;101801.06;4807903;29;20037;-84
2022/05/15 07:24:20;;;;;;;19.73;10.68;;;;;;;27.55;31.85;101795.94;4807999;29;20035;-83
2022/05/15 07:26:54;;;;;;;;;;;;;;;29.11;31.56;101974.28;4808554;29;20053;-83
2022/05/15 07:29:20;;;;;;;22.17;10.38;;;;;;;25.91;32.41;101806.25;4807771;29;19924;-82
2022/05/15 07:31:50;;;;;;;21.17;9.93;;;;;;;25.03;35.11;101929.72;4807464;29;20056;-83
2022/05/15 07:34:36;;;;;;;21.73;11.75;;;;;;;24.04;37.06;101919.84;4807639;29;20118;-86
2022/05/15 07:37:02;;;;;;;22.80;11.38;;;;;;;23.36;38.33;101952.19;4807709;29;20045;-82
2022/05/15 07:39:31;;;;;;;20.10;10.50;;;;;;;22.79;40.54;101977.97;4807562;29;20392;-82
2022/05/15 07:42:31;;;;;;;21.60;11.43;;;;;;;22.42;43.03;101971.94;4807629;29;20487;-85
2022/05/15 07:45:00;;;;;;;19.55;12.30;;;;;;;21.13;41.69;101794.66;4769640;30;20055;-85
2022/05/15 07:47:26;;;;;;;19.52;11.75;;;;;;;21.31;43.22;101849.97;4769515;30;20044;-82
2022/05/15 07:49:54;;;;;;;23.38;12.13;;;;;;;21.56;43.24;101944.94;4769585;30;20044;-81
2022/05/15 07:52:22;;;;;;;20.10;11.52;;;;;;;21.17;44.58;101893.22;4769544;30;20042;-80
2022/05/15 07:54:49;;;;;;;20.45;11.90;;;;;;;20.67;43.85;101813.78;4769464;30;20069;-80
2022/05/15 07:57:15;;;;;;;23.25;12.20;;;;;;;21.60;43.96;101977.84;4769391;30;20500;-82
2022/05/15 07:59:40;;;;;;;19.35;11.45;;;;;;;21.61;44.16;101977.72;4769595;30;20046;-81
2022/05/15 08:02:06;;;;;;;21.65;11.98;;;;;;;21.59;43.94;101979.66;4769206;30;20501;-82
2022/05/15 08:08:00;;;;;;;21.48;12.18;;;;;;;21.65;44.08;101973.03;4739736;30;20048;-82
2022/05/15 08:10:03;;;;;;;22.20;10.98;;;;;;;21.63;45.62;101965.28;4769471;30;20432;-82
2022/05/15 08:12:31;;;;;;;21.90;11.68;;;;;;;21.64;45.16;101958.22;4768902;30;20613;-83
2022/05/15 08:14:57;;;;;;;20.70;11.52;;;;;;;21.74;44.98;101962.47;4769178;30;20051;-81
2022/05/15 08:17:22;;;;;;;22.23;13.27;;;;;;;21.66;44.14;101959.72;4754131;30;20092;-81
2022/05/15 08:25:19;;;;;;;18.38;11.57;;;;;;;21.81;44.04;101936.44;4806803;29;20054;-82
2022/05/15 08:27:45;;;;;;;19.63;11.68;;;;;;;21.89;44.25;101944.44;4806821;29;20109;-81
2022/05/15 08:30:11;;;;;;;19.00;11.25;;;;;;;21.81;43.02;101923.28;4806809;29;20035;-82
2022/05/15 08:32:36;;;;;;;21.77;11.05;;;;;;;21.97;44.98;101947.19;4790547;29;20042;-81
2022/05/15 08:35:01;;;;;;;21.75;11.95;;;;;;;21.65;43.98;101910.75;4806874;29;20091;-85
2022/05/15 08:37:27;;;;;;;18.63;12.25;;;;;;;21.38;44.33;101889.66;4806968;29;20034;-81
2022/05/15 08:39:53;;;;;;;18.40;11.88;;;;;;;21.49;43.95;101910.50;4806750;29;20031;-81
2022/05/15 08:42:37;;;;;;;23.92;12.25;;;;;;;21.79;45.29;101935.75;4806469;29;20026;-81
2022/05/15 08:45:04;;;;;;;21.73;11.48;;;;;;;21.86;43.85;101925.50;4806393;29;20041;-83
2022/05/15 08:47:39;;;;;;;18.42;10.52;;;;;;;21.96;44.47;101926.28;4806110;29;20031;-81
2022/05/15 08:50:10;;;;;;;20.33;11.05;;;;;;;21.98;43.10;101914.66;4806590;29;20031;-81
2022/05/15 08:52:47;;;;;;;20.73;11.05;;;;;;;22.07;43.36;101920.06;4806368;29;20042;-81
2022/05/15 08:55:29;;;;;;;20.98;11.77;;;;;;;22.15;42.49;101921.00;4806544;29;20113;-81
2022/05/15 08:57:55;;;;;;;18.33;10.05;;;;;;;22.16;42.39;101924.44;4806203;29;20045;-82
2022/05/15 09:00:32;;;;;;;17.85;9.70;;;;;;;22.12;41.60;101916.00;4806287;29;20034;-83
2022/05/15 09:03:18;;;;;;;20.60;9.55;;;;;;;22.16;40.97;101917.38;4805936;29;20494;-82
2022/05/15 09:05:55;;;;;;;18.75;9.82;;;;;;;22.16;41.24;101924.44;4805958;29;20512;-85
2022/05/15 09:09:01;;;;;;;20.30;10.07;;;;;;;22.10;40.16;101914.50;4805978;29;20037;-80
2022/05/15 09:11:45;;;;;;;19.20;8.90;;;;;;;22.12;41.79;101915.16;4806481;29;20038;-80
2022/05/15 09:14:12;;;;;;;19.50;8.80;;;;;;;21.95;40.54;101885.19;4823964;29;20039;-80
2022/05/15 09:16:41;;;;;;;15.75;8.65;;;;;;;21.78;39.79;101868.34;4823730;29;20034;-80
2022/05/15 09:19:07;;;;;;;15.35;7.70;;;;;;;22.27;40.87;101922.44;4824290;29;20403;-79
2022/05/15 09:21:33;;;;;;;15.88;9.27;;;;;;;22.26;40.72;101912.91;4824260;29;20042;-84
2022/05/15 09:24:07;;;;;;;15.98;8.30;;;;;;;22.19;39.42;101913.63;4824174;29;20034;-80
2022/05/15 09:26:44;;;;;;;17.80;8.35;;;;;;;22.19;39.50;101903.09;4824343;29;20084;-83
2022/05/15 09:29:22;;;;;;;17.23;7.28;;;;;;;22.35;38.81;101919.09;4823858;29;20491;-80
2022/05/15 09:31:49;;;;;;;15.98;7.57;;;;;;;22.46;38.41;101912.78;4824135;29;20026;-79
2022/05/15 09:34:21;;;;;;;14.18;6.57;;;;;;;22.54;38.18;101908.44;4824025;29;20030;-83
2022/05/15 09:36:49;;;;;;;18.92;7.60;;;;;;;22.39;37.60;101898.56;4824153;29;20065;-83
2022/05/15 09:39:24;;;;;;;17.83;7.10;;;;;;;22.54;39.18;101907.63;4824073;29;20027;-82
2022/05/15 09:45:16;;;;;;;14.68;7.13;;;;;;;22.64;35.61;101904.91;4823980;29;20133;-80
2022/05/15 09:47:45;;;;;;;14.65;7.65;;;;;;;22.48;35.76;101880.06;4823744;29;20034;-82
2022/05/15 09:50:36;;;;;;;17.90;7.70;;;;;;;22.60;37.38;101889.41;4823746;29;20042;-82
2022/05/15 09:53:08;;;;;;;16.67;8.25;;;;;;;22.61;35.49;101890.22;4824071;29;20026;-81
2022/05/15 09:55:33;;;;;;;16.50;7.50;;;;;;;22.56;35.22;101888.06;4823747;29;20034;-81
2022/05/15 09:58:03;;;;;;;17.10;6.10;;;;;;;22.43;37.33;101858.66;4823744;29;20029;-81
2022/05/15 10:00:36;;;;;;;13.77;7.22;;;;;;;22.61;35.89;101891.09;4823892;29;20383;-82
2022/05/15 10:03:15;;;;;;;14.10;6.82;;;;;;;22.74;36.59;101882.81;4806883;29;20079;-82
2022/05/15 10:05:41;;;;;;;14.95;6.78;;;;;;;22.58;34.83;101857.13;4823495;29;20042;-84
2022/05/15 10:08:28;;;;;;;17.02;6.70;;;;;;;22.60;34.05;101875.41;4823673;29;20034;-81
2022/05/15 10:10:58;;;;;;;14.77;7.03;;;;;;;22.47;35.83;101859.16;4823044;29;20054;-81
2022/05/15 10:13:45;;;;;;;18.10;8.30;;;;;;;22.53;35.98;101887.53;4823455;29;20054;-83
2022/05/15 10:16:17;;;;;;;17.67;7.40;;;;;;;22.52;36.12;101878.81;4823581;29;20808;-81
2022/05/15 10:18:51;;;;;;;11.98;6.13;;;;;;;22.67;35.31;101878.28;4823459;29;20033;-81
2022/05/15 10:21:18;;;;;;;14.27;6.07;;;;;;;22.87;34.19;101871.91;4823551;29;20110;-83
2022/05/15 10:23:48;;;;;;;14.40;6.07;;;;;;;22.95;34.18;101879.88;4823510;29;20044;-83
2022/05/15 10:26:26;;;;;;;13.20;6.18;;;;;;;22.93;35.16;101867.84;4823708;29;20031;-82
2022/05/15 10:29:21;;;;;;;16.95;6.35;;;;;;;23.04;35.64;101873.72;4826592;29;20031;-81
2022/05/15 10:31:54;;;;;;;15.93;7.07;;;;;;;22.86;35.03;101851.81;4825549;29;20030;-83
2022/05/15 10:34:25;;;;;;;14.68;6.00;;;;;;;22.87;33.78;101864.00;4826649;29;20035;-84
2022/05/15 10:37:18;;;;;;;17.77;7.05;;;;;;;22.75;35.76;101839.69;4826957;29;20387;-82
2022/05/15 10:40:07;;;;;;;13.15;6.47;;;;;;;22.76;34.66;101840.50;4826625;29;20129;-81
2022/05/15 10:43:02;;;;;;;13.93;6.20;;;;;;;22.81;35.50;101856.66;4826436;29;20031;-79
2022/05/15 10:45:51;;;;;;;16.08;5.45;;;;;;;22.87;35.65;101866.66;4826832;29;20039;-83
2022/05/15 10:48:19;;;;;;;14.32;5.65;;;;;;;22.93;35.13;101860.78;4826416;29;20079;-83
2022/05/15 10:51:05;;;;;;;10.90;4.90;;;;;;;22.81;34.72;101809.28;4825137;29;20039;-82
2022/05/15 10:59:50;;;;;;;15.70;4.72;;;;;;;23.32;33.91;101834.06;4826457;29;20036;-82
2022/05/15 11:02:34;;;;;;;10.13;4.32;;;;;;;23.37;31.58;101837.03;4826189;29;20117;-80
2022/05/15 11:05:03;;;;;;;10.93;4.28;;;;;;;23.28;32.04;101838.78;4809981;29;20495;-83
2022/05/15 11:07:40;;;;;;;13.02;4.53;;;;;;;23.17;33.09;101818.78;4826423;29;20121;-80
2022/05/15 11:10:15;;;;;;;14.93;4.72;;;;;;;23.27;32.45;101841.59;4826163;29;20038;-80
2022/05/15 11:13:09;;;;;;;12.88;4.05;;;;;;;23.35;32.31;101844.28;4824782;29;20078;-84
2022/05/15 11:16:16;;;;;;;11.88;4.60;;;;;;;23.45;32.64;101837.09;4826231;29;20026;-80
2022/05/15 11:19:00;;;;;;;14.52;5.03;;;;;;;23.39;32.54;101837.69;4769822;30;20147;-80
2022/05/15 11:21:43;;;;;;;11.43;5.13;;;;;;;23.46;32.64;101836.94;4770249;30;20186;-81
2022/05/15 11:24:35;;;;;;;12.57;5.60;;;;;;;23.54;33.21;101836.16;4769798;30;20130;-81
2022/05/15 11:27:09;;;;;;;11.05;5.10;;;;;;;23.51;33.25;101823.28;4769696;30;20062;-82
2022/05/15 11:29:41;;;;;;;15.15;5.07;;;;;;;23.47;33.24;101801.66;4769784;30;20123;-82
2022/05/15 11:32:28;;;;;;;22.17;5.78;;;;;;;23.64;33.63;101810.53;4769934;30;20031;-83
2022/05/15 11:35:20;;;;;;;11.57;5.80;;;;;;;23.67;33.06;101809.38;4769677;30;20110;-81
2022/05/15 11:38:11;;;;;;;16.27;5.82;;;;;;;23.58;33.41;101805.84;4733613;30;20041;-81
2022/05/15 11:40:39;;;;;;;15.10;4.85;;;;;;;23.64;32.65;101793.88;4734239;30;20124;-83
2022/05/15 11:43:26;;;;;;;13.45;5.43;;;;;;;23.77;33.21;101794.25;4734070;30;20482;-82
2022/05/15 11:46:08;;;;;;;14.23;4.78;;;;;;;23.54;33.08;101758.88;4734116;30;20048;-83
2022/05/15 11:48:39;;;;;;;15.13;4.90;;;;;;;23.71;32.57;101793.09;4738397;30;20482;-82
2022/05/15 11:51:27;;;;;;;15.63;5.28;;;;;;;23.73;31.78;101792.94;4769525;30;20123;-81
2022/05/15 11:53:57;;;;;;;12.82;5.10;;;;;;;23.77;31.34;101772.31;4769199;30;20533;-80
2022/05/15 11:56:27;;;;;;;14.07;5.55;;;;;;;23.78;30.67;101789.78;4769286;30;20175;-82
2022/05/15 11:58:58;;;;;;;14.60;5.10;;;;;;;23.82;32.53;101781.41;4769328;30;20187;-81
2022/05/15 12:01:35;;;;;;;11.75;5.82;;;;;;;23.87;31.78;101780.94;4769268;30;20191;-84
2022/05/15 12:04:07;;;;;;;14.77;5.72;;;;;;;23.86;31.78;101772.19;4769145;30;20036;-81
2022/05/15 12:06:45;;;;;;;13.88;5.82;;;;;;;23.95;32.92;101770.41;4768903;30;20063;-80
2022/05/15 12:09:16;;;;;;;13.13;5.38;;;;;;;24.05;31.47;101768.44;4769900;30;20066;-83
2022/05/15 12:11:47;;;;;;;15.35;5.63;;;;;;;23.95;31.53;101760.69;4753844;30;20501;-83
2022/05/15 12:14:22;;;;;;;14.68;5.97;;;;;;;24.04;31.93;101767.63;4789230;29;20103;-80